Terminal Aerodrome Forecast
Issued by NWS North Platte, NE

Home | Current Version | Previous Version | Text Only | Print | Product List | Glossary Off
Versions: 1 2 3 4 5 6 7 8 9 10 11 12 13 14 15 16 17 18 19 20

000
FTUS43 KLBF 281700
TAFVTN
TAF
KVTN 281739Z 2818/0118 24010KT P6SM SCT050
     FM282100 27005KT P6SM SCT050
     FM010000 31005KT P6SM SCT080
     FM010800 VRB04KT P6SM BKN100=

USA.gov is the U.S. government's official web portal to all federal, state and local government web resources and services.